createdAt,value
2023-03-19T00:02:16.774Z,4.35
2023-03-19T00:04:44.229Z,4.65
2023-03-19T00:07:11.252Z,4.85
2023-03-19T00:09:38.097Z,4.18
2023-03-19T00:12:04.956Z,3.83
2023-03-19T00:14:31.733Z,4.40
2023-03-19T00:16:58.439Z,4.13
2023-03-19T00:19:25.299Z,4.13
2023-03-19T00:21:52.222Z,3.90
2023-03-19T00:24:19.051Z,4.15
2023-03-19T00:26:45.606Z,4.65
2023-03-19T00:29:13.064Z,4.18
2023-03-19T00:31:40.793Z,4.03
2023-03-19T00:34:08.331Z,3.83
2023-03-19T00:36:34.909Z,3.42
2023-03-19T00:39:02.005Z,4.10
2023-03-19T00:41:29.489Z,3.58
2023-03-19T00:43:57.372Z,3.47
2023-03-19T00:46:25.611Z,3.88
2023-03-19T00:48:55.500Z,3.88
2023-03-19T00:51:23.724Z,3.67
2023-03-19T00:53:51.413Z,3.70
2023-03-19T00:56:18.409Z,3.50
2023-03-19T00:58:45.791Z,3.58
2023-03-19T01:01:15.661Z,3.80
2023-03-19T01:03:42.586Z,3.25
2023-03-19T01:06:09.156Z,3.40
2023-03-19T01:08:35.796Z,3.42
2023-03-19T01:11:11.223Z,3.55
2023-03-19T01:13:37.877Z,3.60
2023-03-19T01:16:05.014Z,3.40
2023-03-19T01:18:31.915Z,3.03
2023-03-19T01:20:58.797Z,3.90
2023-03-19T01:23:25.488Z,3.58
2023-03-19T01:25:52.213Z,3.60
2023-03-19T01:28:19.766Z,3.78
2023-03-19T01:30:46.364Z,3.13
2023-03-19T01:33:13.182Z,3.28
2023-03-19T01:35:39.997Z,2.80
2023-03-19T01:38:07.942Z,2.75
2023-03-19T01:40:34.724Z,2.97
2023-03-19T01:43:10.646Z,3.58
2023-03-19T01:45:39.544Z,3.33
2023-03-19T01:48:12.489Z,3.17
2023-03-19T01:50:45.942Z,3.22
2023-03-19T01:53:15.866Z,2.88
2023-03-19T01:55:42.566Z,3.00
2023-03-19T01:58:10.275Z,2.80
2023-03-19T02:00:38.307Z,2.75
2023-03-19T02:03:06.679Z,2.80
2023-03-19T02:05:33.980Z,2.88
2023-03-19T02:08:06.477Z,3.60
2023-03-19T02:10:34.135Z,2.42
2023-03-19T02:13:01.022Z,2.67
2023-03-19T02:15:27.678Z,3.15
2023-03-19T02:17:54.564Z,2.92
2023-03-19T02:20:32.408Z,2.88
2023-03-19T02:23:22.085Z,2.80
2023-03-19T02:25:48.521Z,2.75
2023-03-19T02:28:18.850Z,3.03
2023-03-19T02:30:46.036Z,3.05
2023-03-19T02:33:18.136Z,2.85
2023-03-19T02:35:50.529Z,3.10
2023-03-19T02:38:17.443Z,3.13
2023-03-19T02:40:57.132Z,2.50
2023-03-19T02:43:24.078Z,2.65
2023-03-19T02:45:50.635Z,2.55
2023-03-19T02:48:17.350Z,2.40
2023-03-19T02:50:43.857Z,2.90
2023-03-19T02:53:10.358Z,2.63
2023-03-19T02:55:37.019Z,2.95
2023-03-19T02:58:03.622Z,3.15
2023-03-19T03:00:30.606Z,2.90
2023-03-19T03:02:58.037Z,3.13
2023-03-19T03:05:24.752Z,2.55
2023-03-19T03:07:51.294Z,3.08
2023-03-19T03:10:18.134Z,3.03
2023-03-19T03:12:44.693Z,2.80
2023-03-19T03:15:11.325Z,2.55
2023-03-19T03:17:39.989Z,2.88
2023-03-19T03:20:08.513Z,3.22
2023-03-19T03:22:35.729Z,2.75
2023-03-19T03:25:02.212Z,3.28
2023-03-19T03:27:28.731Z,2.30
2023-03-19T03:29:55.451Z,2.50
2023-03-19T03:32:22.361Z,2.80
2023-03-19T03:34:49.037Z,2.60
2023-03-19T03:37:15.605Z,2.70
2023-03-19T03:39:42.559Z,2.42
2023-03-19T03:42:09.110Z,2.58
2023-03-19T03:44:36.238Z,2.72
2023-03-19T03:47:03.524Z,2.78
2023-03-19T03:49:30.091Z,3.13
2023-03-19T03:51:57.275Z,2.45
2023-03-19T03:54:23.779Z,2.90
2023-03-19T03:56:50.810Z,2.28
2023-03-19T03:59:17.369Z,2.97
2023-03-19T04:01:43.880Z,2.85
2023-03-19T04:04:10.617Z,2.47
2023-03-19T04:06:37.133Z,2.80
2023-03-19T04:09:03.941Z,2.67
2023-03-19T04:11:30.495Z,2.72
2023-03-19T04:13:57.778Z,2.67
2023-03-19T04:16:24.776Z,2.60
2023-03-19T04:18:51.380Z,2.25
2023-03-19T04:21:17.873Z,2.83
2023-03-19T04:23:44.353Z,2.92
2023-03-19T04:26:12.255Z,2.70
2023-03-19T04:28:38.834Z,2.60
2023-03-19T04:31:07.508Z,2.90
2023-03-19T04:33:34.741Z,2.40
2023-03-19T04:36:01.658Z,2.55
2023-03-19T04:38:28.584Z,2.33
2023-03-19T04:40:56.169Z,2.50
2023-03-19T04:43:23.700Z,2.45
2023-03-19T04:45:50.761Z,2.67
2023-03-19T04:48:18.413Z,2.50
2023-03-19T04:50:47.118Z,2.55
2023-03-19T04:53:13.954Z,2.42
2023-03-19T04:55:41.055Z,2.50
2023-03-19T04:58:09.033Z,2.50
2023-03-19T05:00:35.723Z,2.38
2023-03-19T05:03:02.318Z,2.42
2023-03-19T05:05:29.038Z,2.50
2023-03-19T05:07:57.311Z,2.58
2023-03-19T05:10:24.140Z,2.25
2023-03-19T05:12:50.654Z,2.88
2023-03-19T05:15:17.257Z,2.70
2023-03-19T05:17:43.819Z,2.70
2023-03-19T05:20:12.641Z,2.05
2023-03-19T05:22:39.219Z,2.75
2023-03-19T05:25:06.911Z,2.20
2023-03-19T05:27:33.559Z,2.63
2023-03-19T05:30:01.436Z,2.83
2023-03-19T05:32:28.349Z,3.08
2023-03-19T05:34:55.106Z,2.20
2023-03-19T05:37:21.916Z,3.15
2023-03-19T05:39:48.466Z,3.13
2023-03-19T05:42:15.620Z,2.70
2023-03-19T05:44:42.298Z,2.70
2023-03-19T05:47:10.180Z,3.70
2023-03-19T05:49:37.256Z,3.78
2023-03-19T05:52:04.171Z,3.22
2023-03-19T05:54:30.718Z,4.15
2023-03-19T05:56:57.337Z,4.18
2023-03-19T05:59:23.906Z,4.30
2023-03-19T06:01:50.688Z,3.47
2023-03-19T06:04:17.274Z,4.20
2023-03-19T06:06:43.874Z,4.50
2023-03-19T06:09:10.438Z,4.05
2023-03-19T06:11:39.477Z,4.70
2023-03-19T06:14:06.856Z,4.93
2023-03-19T06:16:33.347Z,4.75
2023-03-19T06:19:00.007Z,4.63
2023-03-19T06:21:29.553Z,5.13
2023-03-19T06:23:56.958Z,4.57
2023-03-19T06:26:24.190Z,5.18
2023-03-19T06:28:50.764Z,5.68
2023-03-19T06:31:17.548Z,5.80
2023-03-19T06:33:44.141Z,6.05
2023-03-19T06:36:10.717Z,5.70
2023-03-19T06:38:37.823Z,5.65
2023-03-19T06:41:04.608Z,5.57
2023-03-19T06:43:31.868Z,5.53
2023-03-19T06:45:58.467Z,5.53
2023-03-19T06:48:25.101Z,5.43
2023-03-19T06:50:51.642Z,5.47
2023-03-19T06:53:18.166Z,5.50
2023-03-19T06:55:46.837Z,5.75
2023-03-19T06:58:13.478Z,7.55
2023-03-19T07:00:40.030Z,5.78
2023-03-19T07:03:07.431Z,6.13
2023-03-19T07:05:34.051Z,5.65
2023-03-19T07:08:00.809Z,5.57
2023-03-19T07:10:27.377Z,5.65
2023-03-19T07:12:53.956Z,5.43
2023-03-19T07:15:21.615Z,6.38
2023-03-19T07:17:49.549Z,5.93
2023-03-19T07:20:16.401Z,6.18
2023-03-19T07:22:42.911Z,6.00
2023-03-19T07:25:09.665Z,6.32
2023-03-19T07:27:36.210Z,6.00
2023-03-19T07:30:02.822Z,6.22
2023-03-19T07:32:29.358Z,5.57
2023-03-19T07:34:56.154Z,5.47
2023-03-19T07:37:22.743Z,5.72
2023-03-19T07:39:49.265Z,5.45
2023-03-19T07:42:15.824Z,5.78
2023-03-19T07:44:42.353Z,5.68
2023-03-19T07:47:22.531Z,5.80
2023-03-19T07:49:54.711Z,6.10
2023-03-19T07:52:21.288Z,6.10
2023-03-19T07:54:47.926Z,5.53
2023-03-19T07:57:16.561Z,6.28
2023-03-19T07:59:43.069Z,7.68
2023-03-19T08:02:13.340Z,7.65
2023-03-19T08:04:42.865Z,6.47
2023-03-19T08:07:12.828Z,7.55
2023-03-19T08:09:40.676Z,8.35
2023-03-19T08:12:07.768Z,8.77
2023-03-19T08:14:34.335Z,7.40
2023-03-19T08:17:01.168Z,6.43
2023-03-19T08:19:28.210Z,6.28
2023-03-19T08:21:54.725Z,8.25
2023-03-19T08:24:21.507Z,7.00
2023-03-19T08:26:48.010Z,6.30
2023-03-19T08:29:14.587Z,6.63
2023-03-19T08:31:41.219Z,7.05
2023-03-19T08:34:10.324Z,7.15
2023-03-19T08:36:36.843Z,7.10
2023-03-19T08:39:04.216Z,7.80
2023-03-19T08:41:31.251Z,6.60
2023-03-19T08:43:57.783Z,6.85
2023-03-19T08:46:24.473Z,7.20
2023-03-19T08:48:51.054Z,6.78
2023-03-19T08:51:17.613Z,7.22
2023-03-19T08:53:45.396Z,6.60
2023-03-19T08:56:11.989Z,7.13
2023-03-19T08:58:40.065Z,6.88
2023-03-19T09:01:12.762Z,8.25
2023-03-19T09:03:40.731Z,9.15
2023-03-19T09:06:09.909Z,9.48
2023-03-19T09:08:37.534Z,10.32
2023-03-19T09:11:05.505Z,10.90
2023-03-19T09:13:32.577Z,11.65
2023-03-19T09:15:59.178Z,12.55
2023-03-19T09:18:25.907Z,12.20
2023-03-19T09:20:53.984Z,12.50
2023-03-19T09:23:21.294Z,13.15
2023-03-19T09:25:48.687Z,15.00
2023-03-19T09:28:15.414Z,16.08
2023-03-19T09:30:41.971Z,18.15
2023-03-19T09:33:08.722Z,21.45
2023-03-19T09:35:35.665Z,21.38
2023-03-19T09:38:03.121Z,18.55
2023-03-19T09:40:43.846Z,18.77
2023-03-19T09:43:31.790Z,20.52
2023-03-19T09:46:01.247Z,21.88
2023-03-19T09:48:54.733Z,19.83
2023-03-19T09:51:30.335Z,17.20
2023-03-19T09:54:05.317Z,18.30
2023-03-19T09:56:33.198Z,17.98
2023-03-19T09:59:00.412Z,18.00
2023-03-19T10:01:33.665Z,18.08
2023-03-19T10:04:25.121Z,20.48
2023-03-19T10:06:59.613Z,18.17
2023-03-19T10:09:43.111Z,24.73
2023-03-19T10:12:27.591Z,27.08
2023-03-19T10:15:17.295Z,20.27
2023-03-19T10:17:58.184Z,18.42
2023-03-19T10:20:33.659Z,19.17
2023-03-19T10:23:33.741Z,22.90
2023-03-19T10:26:03.876Z,17.63
2023-03-19T10:28:30.815Z,20.65
2023-03-19T10:31:22.204Z,20.25
2023-03-19T10:34:16.965Z,20.10
2023-03-19T10:36:43.475Z,19.88
2023-03-19T10:39:10.039Z,21.95
2023-03-19T10:42:05.266Z,19.67
2023-03-19T10:44:36.919Z,18.90
2023-03-19T10:47:15.409Z,19.67
2023-03-19T10:49:42.727Z,19.25
2023-03-19T10:52:22.766Z,18.58
2023-03-19T10:54:55.806Z,19.33
2023-03-19T10:57:26.696Z,19.65
2023-03-19T10:59:53.268Z,18.10
2023-03-19T11:02:23.312Z,19.23
2023-03-19T11:05:07.691Z,18.73
2023-03-19T11:07:36.291Z,17.77
2023-03-19T11:10:03.488Z,18.98
2023-03-19T11:12:35.527Z,18.23
2023-03-19T11:15:07.541Z,18.25
2023-03-19T11:17:45.029Z,18.65
2023-03-19T11:20:23.557Z,18.55
2023-03-19T11:22:52.547Z,23.25
2023-03-19T11:25:27.065Z,18.98
2023-03-19T11:28:19.691Z,19.05
2023-03-19T11:31:15.909Z,18.77
2023-03-19T11:34:20.040Z,20.45
2023-03-19T11:37:01.778Z,19.77
2023-03-19T11:39:49.863Z,33.75
2023-03-19T11:42:36.787Z,23.48
2023-03-19T11:45:13.614Z,23.45
2023-03-19T11:48:02.651Z,25.65
2023-03-19T11:50:48.382Z,25.42
2023-03-19T11:53:41.867Z,29.92
2023-03-19T11:56:27.705Z,39.43
2023-03-19T11:59:25.633Z,42.25
2023-03-19T12:02:14.052Z,31.08
2023-03-19T12:05:09.272Z,44.22
2023-03-19T12:07:48.075Z,32.65
2023-03-19T12:10:23.610Z,26.25
2023-03-19T12:13:19.708Z,25.17
2023-03-19T12:16:15.915Z,26.52
2023-03-19T12:18:44.981Z,26.23
2023-03-19T12:21:35.337Z,77.03
2023-03-19T12:24:04.533Z,40.33
2023-03-19T12:26:54.048Z,43.47
2023-03-19T12:29:43.801Z,42.55
2023-03-19T12:32:27.290Z,46.20
2023-03-19T12:34:57.799Z,37.63
2023-03-19T12:37:36.488Z,41.30
2023-03-19T12:40:41.899Z,46.55
2023-03-19T12:43:43.024Z,47.08
2023-03-19T12:46:14.692Z,47.20
2023-03-19T12:48:53.104Z,47.58
2023-03-19T12:51:27.732Z,43.42
2023-03-19T12:53:58.780Z,45.92
2023-03-19T12:56:49.223Z,43.47
2023-03-19T12:59:33.568Z,46.58
2023-03-19T13:02:18.164Z,52.03
2023-03-19T13:05:12.844Z,42.63
2023-03-19T13:07:57.846Z,44.35
2023-03-19T13:10:25.721Z,41.42
2023-03-19T13:12:53.991Z,41.40
2023-03-19T13:15:37.321Z,39.47
2023-03-19T13:18:46.444Z,41.15
2023-03-19T13:21:24.605Z,38.30
2023-03-19T13:24:23.141Z,57.42
2023-03-19T13:26:51.042Z,84.43
2023-03-19T13:29:26.977Z,57.42
2023-03-19T13:32:05.652Z,64.07
2023-03-19T13:34:35.637Z,62.90
2023-03-19T13:37:15.347Z,53.85
2023-03-19T13:39:43.638Z,52.95
2023-03-19T13:42:10.202Z,60.58
2023-03-19T13:44:43.041Z,56.00
2023-03-19T13:47:36.360Z,57.30
2023-03-19T13:50:10.888Z,57.13
2023-03-19T13:52:50.087Z,60.03
2023-03-19T13:55:33.141Z,64.65
2023-03-19T13:58:37.775Z,63.53
2023-03-19T14:01:24.191Z,56.05
2023-03-19T14:03:58.739Z,52.00
2023-03-19T14:06:53.616Z,48.10
2023-03-19T14:09:43.045Z,54.60
2023-03-19T14:12:20.120Z,56.42
2023-03-19T14:14:56.046Z,49.13
2023-03-19T14:17:24.378Z,55.55
2023-03-19T14:19:53.154Z,49.92
2023-03-19T14:22:59.021Z,47.97
2023-03-19T14:25:27.663Z,50.78
2023-03-19T14:27:59.261Z,44.78
2023-03-19T14:30:35.147Z,66.70
2023-03-19T14:33:08.181Z,91.32
2023-03-19T14:35:45.074Z,93.78
2023-03-19T14:38:31.949Z,111.20
2023-03-19T14:41:01.079Z,100.10
2023-03-19T14:43:51.444Z,100.03
2023-03-19T14:46:40.428Z,112.13
2023-03-19T14:49:42.966Z,102.40
2023-03-19T14:52:35.642Z,91.57
2023-03-19T14:55:12.610Z,82.07
2023-03-19T14:57:39.210Z,93.05
2023-03-19T15:00:18.662Z,86.70
2023-03-19T15:02:51.204Z,82.30
2023-03-19T15:05:28.596Z,80.55
2023-03-19T15:08:04.958Z,83.75
2023-03-19T15:10:44.107Z,77.38
2023-03-19T15:13:22.618Z,74.80
2023-03-19T15:16:05.600Z,74.25
2023-03-19T15:18:32.225Z,67.10
2023-03-19T15:20:59.202Z,68.43
2023-03-19T15:23:28.634Z,67.57
2023-03-19T15:26:03.958Z,64.97
2023-03-19T15:28:44.778Z,61.58
2023-03-19T15:31:29.887Z,61.90
2023-03-19T15:33:58.970Z,58.42
2023-03-19T15:36:31.200Z,55.35
2023-03-19T15:39:02.601Z,55.30
2023-03-19T15:41:31.986Z,53.72
2023-03-19T15:44:01.026Z,60.10
2023-03-19T15:46:32.818Z,80.00
2023-03-19T15:49:17.360Z,81.55
2023-03-19T15:51:51.466Z,98.57
2023-03-19T15:54:19.117Z,95.78
2023-03-19T15:56:46.282Z,96.32
2023-03-19T15:59:12.947Z,92.43
2023-03-19T16:01:39.666Z,89.47
2023-03-19T16:04:08.635Z,88.95
2023-03-19T16:06:39.630Z,88.82
2023-03-19T16:09:27.132Z,86.07
2023-03-19T16:11:54.497Z,83.10
2023-03-19T16:14:29.678Z,79.20
2023-03-19T16:17:11.542Z,79.28
2023-03-19T16:19:51.943Z,76.57
2023-03-19T16:22:23.320Z,75.43
2023-03-19T16:24:51.922Z,72.93
2023-03-19T16:27:39.948Z,71.32
2023-03-19T16:30:16.080Z,66.85
2023-03-19T16:32:42.686Z,64.35
2023-03-19T16:35:15.402Z,65.93
2023-03-19T16:37:49.737Z,62.43
2023-03-19T16:40:23.608Z,79.53
2023-03-19T16:42:51.236Z,80.60
2023-03-19T16:45:22.386Z,83.78
2023-03-19T16:47:51.389Z,95.20
2023-03-19T16:50:19.911Z,102.53
2023-03-19T16:52:47.734Z,101.22
2023-03-19T16:55:23.841Z,102.03
2023-03-19T16:58:11.488Z,98.88
2023-03-19T17:00:38.075Z,95.57
2023-03-19T17:03:11.064Z,95.95
2023-03-19T17:05:37.742Z,93.13
2023-03-19T17:08:04.401Z,92.43
2023-03-19T17:10:32.363Z,82.70
2023-03-19T17:13:01.081Z,77.82
2023-03-19T17:15:35.548Z,83.43
2023-03-19T17:18:04.302Z,77.90
2023-03-19T17:20:36.722Z,78.78
2023-03-19T17:23:12.894Z,74.15
2023-03-19T17:25:40.474Z,73.05
2023-03-19T17:28:06.986Z,71.30
2023-03-19T17:30:34.314Z,70.03
2023-03-19T17:33:01.087Z,66.82
2023-03-19T17:35:27.935Z,67.22
2023-03-19T17:37:54.982Z,69.45
2023-03-19T17:40:27.611Z,67.15
2023-03-19T17:42:56.128Z,63.33
2023-03-19T17:45:29.834Z,59.45
2023-03-19T17:50:27.091Z,55.08
2023-03-19T17:52:53.663Z,56.65
2023-03-19T17:55:23.329Z,53.58
2023-03-19T17:57:51.160Z,53.00
2023-03-19T18:00:20.086Z,59.15
2023-03-19T18:02:50.744Z,62.50
2023-03-19T18:05:20.092Z,64.43
2023-03-19T18:07:48.342Z,69.80
2023-03-19T18:10:27.597Z,74.05
2023-03-19T18:12:54.765Z,79.35
2023-03-19T18:15:22.313Z,80.78
2023-03-19T18:17:56.044Z,84.35
2023-03-19T18:22:51.038Z,80.78
2023-03-19T18:25:22.911Z,81.80
2023-03-19T18:27:49.858Z,80.65
2023-03-19T18:30:19.448Z,78.88
2023-03-19T18:32:49.483Z,78.57
2023-03-19T18:35:19.041Z,75.88
2023-03-19T18:37:48.648Z,72.68
2023-03-19T18:40:19.291Z,73.55
2023-03-19T18:42:47.127Z,70.43
2023-03-19T18:45:15.234Z,70.15
2023-03-19T18:47:43.526Z,69.82
2023-03-19T18:50:19.783Z,64.90
2023-03-19T18:52:48.198Z,65.63
2023-03-19T18:55:15.588Z,67.82
2023-03-19T18:57:54.124Z,67.00
2023-03-19T19:00:28.331Z,67.22
2023-03-19T19:02:56.632Z,71.90
2023-03-19T19:05:27.653Z,74.15
2023-03-19T19:07:59.885Z,78.22
2023-03-19T19:10:32.461Z,75.03
2023-03-19T19:13:00.289Z,77.07
2023-03-19T19:15:34.182Z,73.20
2023-03-19T19:18:03.087Z,73.05
2023-03-19T19:20:29.863Z,67.32
2023-03-19T19:22:56.610Z,69.55
2023-03-19T19:25:26.200Z,66.95
2023-03-19T19:28:06.437Z,62.72
2023-03-19T19:30:33.161Z,66.97
2023-03-19T19:32:59.943Z,61.25
2023-03-19T19:35:28.263Z,57.95
2023-03-19T19:37:55.480Z,58.63
2023-03-19T19:40:26.992Z,57.22
2023-03-19T19:42:53.923Z,58.53
2023-03-19T19:45:41.767Z,51.00
2023-03-19T19:48:19.575Z,56.22
2023-03-19T19:50:47.409Z,56.28
2023-03-19T19:53:15.165Z,56.92
2023-03-19T19:55:42.787Z,56.70
2023-03-19T19:58:24.721Z,58.13
2023-03-19T20:01:02.901Z,55.17
2023-03-19T20:03:32.775Z,60.00
2023-03-19T20:06:01.451Z,61.33
2023-03-19T20:08:28.772Z,59.55
2023-03-19T20:10:56.227Z,56.60
2023-03-19T20:13:29.112Z,58.78
2023-03-19T20:15:58.717Z,62.43
2023-03-19T20:18:30.804Z,59.08
2023-03-19T20:20:59.285Z,61.30
2023-03-19T20:23:26.254Z,62.53
2023-03-19T20:25:55.939Z,62.88
2023-03-19T20:28:26.306Z,61.17
2023-03-19T20:30:54.239Z,59.17
2023-03-19T20:33:21.676Z,59.58
2023-03-19T20:35:48.636Z,55.30
2023-03-19T20:38:15.835Z,51.47
2023-03-19T20:40:45.522Z,55.20
2023-03-19T20:43:32.344Z,48.95
2023-03-19T20:46:02.847Z,49.35
2023-03-19T20:48:30.683Z,52.17
2023-03-19T20:50:58.343Z,49.85
2023-03-19T20:53:25.681Z,47.47
2023-03-19T20:55:52.797Z,46.88
2023-03-19T20:58:27.470Z,48.00
2023-03-19T21:00:56.429Z,46.33
2023-03-19T21:03:25.341Z,45.38
2023-03-19T21:05:55.410Z,45.55
2023-03-19T21:08:32.327Z,44.95
2023-03-19T21:10:58.989Z,43.80
2023-03-19T21:13:25.937Z,46.08
2023-03-19T21:15:53.921Z,44.25
2023-03-19T21:18:20.556Z,40.95
2023-03-19T21:20:50.907Z,43.22
2023-03-19T21:23:20.520Z,42.38
2023-03-19T21:25:48.191Z,42.20
2023-03-19T21:28:28.184Z,40.40
2023-03-19T21:30:54.740Z,42.58
2023-03-19T21:33:27.159Z,40.78
2023-03-19T21:35:55.111Z,43.25
2023-03-19T21:38:22.665Z,41.30
2023-03-19T21:41:00.562Z,40.45
2023-03-19T21:43:34.255Z,40.13
2023-03-19T21:48:44.326Z,40.80
2023-03-19T21:51:16.630Z,40.25
2023-03-19T21:53:43.586Z,39.80
2023-03-19T21:56:22.195Z,41.50
2023-03-19T21:58:51.442Z,40.03
2023-03-19T22:01:20.655Z,39.88
2023-03-19T22:03:48.040Z,39.28
2023-03-19T22:06:14.641Z,40.65
2023-03-19T22:08:44.455Z,38.78
2023-03-19T22:11:35.938Z,39.20
2023-03-19T22:14:14.469Z,39.47
2023-03-19T22:16:41.205Z,36.67
2023-03-19T22:19:13.026Z,35.60
2023-03-19T22:21:39.548Z,35.15
2023-03-19T22:24:06.304Z,34.28
2023-03-19T22:26:41.720Z,35.97
2023-03-19T22:29:15.766Z,35.25
2023-03-19T22:31:42.382Z,34.90
2023-03-19T22:34:17.560Z,35.55
2023-03-19T22:36:44.963Z,34.47
2023-03-19T22:39:11.663Z,33.20
2023-03-19T22:41:42.652Z,32.85
2023-03-19T22:44:16.359Z,32.80
2023-03-19T22:49:13.886Z,32.05
2023-03-19T22:51:40.432Z,32.17
2023-03-19T22:54:07.089Z,31.33
2023-03-19T22:56:33.622Z,30.65
2023-03-19T22:59:00.174Z,32.75
2023-03-19T23:01:31.558Z,30.92
2023-03-19T23:04:25.384Z,32.25
2023-03-19T23:06:54.168Z,28.45
2023-03-19T23:09:24.095Z,29.77
2023-03-19T23:11:51.573Z,30.67
2023-03-19T23:14:29.042Z,29.80
2023-03-19T23:19:29.159Z,28.05
2023-03-19T23:21:56.432Z,26.67
2023-03-19T23:24:24.154Z,27.95
2023-03-19T23:26:53.856Z,27.67
2023-03-19T23:29:24.547Z,25.70
2023-03-19T23:31:51.333Z,26.10
2023-03-19T23:34:17.893Z,25.85
2023-03-19T23:36:44.525Z,27.33
2023-03-19T23:39:11.463Z,26.20
2023-03-19T23:41:48.228Z,26.63
2023-03-19T23:44:17.646Z,25.10
2023-03-19T23:46:49.272Z,25.70
2023-03-19T23:49:24.120Z,24.65
2023-03-19T23:51:50.716Z,22.58
2023-03-19T23:54:20.276Z,24.02
2023-03-19T23:56:46.774Z,22.98
2023-03-19T23:59:13.343Z,24.00
